Time;durP1;ratioP1;P1;durP2;ratioP2;P2;SDS_P1;SDS_P2;PMS_P1;PMS_P2;Temp;Humidity;BMP_temperature;BMP_pressure;BME280_temperature;BME280_humidity;BME280_pressure;Samples;Min_cycle;Max_cycle;Signal;HPM_P1;HPM_P2
2023/02/07 00:02:10;;;;;;;10.20;7.97;;;2.50;99.90;;;;;;5012345;28;20195;-73
2023/02/07 00:04:36;;;;;;;11.63;10.30;;;2.40;99.90;;;;;;5014018;28;20229;-73
2023/02/07 00:07:01;;;;;;;13.53;10.47;;;2.30;99.90;;;;;;5014465;28;20183;-74
2023/02/07 00:09:27;;;;;;;10.53;8.70;;;2.20;99.90;;;;;;5013872;28;20218;-74
2023/02/07 00:11:52;;;;;;;10.07;8.80;;;2.30;99.90;;;;;;5013790;28;20184;-73
2023/02/07 00:14:18;;;;;;;9.93;8.90;;;2.10;99.90;;;;;;5014063;28;20250;-71
2023/02/07 00:16:44;;;;;;;11.40;9.70;;;2.10;99.90;;;;;;5022705;28;20556;-73
2023/02/07 00:19:09;;;;;;;11.23;9.80;;;1.90;99.90;;;;;;5033738;28;20186;-73
2023/02/07 00:21:35;;;;;;;10.33;9.23;;;1.80;99.90;;;;;;5019621;28;20297;-73
2023/02/07 00:24:01;;;;;;;11.20;9.20;;;1.90;99.90;;;;;;5028841;28;20630;-73
2023/02/07 00:26:26;;;;;;;11.30;9.07;;;1.80;99.90;;;;;;5013723;28;20256;-73
2023/02/07 00:28:53;;;;;;;9.30;8.40;;;1.80;99.90;;;;;;5028857;28;20195;-73
2023/02/07 00:31:25;;;;;;;9.83;8.83;;;1.80;99.90;;;;;;5013250;28;20405;-73
2023/02/07 00:33:54;;;;;;;10.93;8.17;;;1.70;99.90;;;;;;5011929;28;20453;-73
2023/02/07 00:36:21;;;;;;;11.87;9.27;;;1.50;99.90;;;;;;5012581;28;20468;-72
2023/02/07 00:38:47;;;;;;;9.23;7.83;;;1.50;99.90;;;;;;5012463;28;20416;-73
2023/02/07 00:41:16;;;;;;;11.20;8.47;;;1.60;99.90;;;;;;5013234;28;20418;-73
2023/02/07 00:43:42;;;;;;;10.83;9.10;;;1.60;99.90;;;;;;5013491;28;20392;-73
2023/02/07 00:46:07;;;;;;;11.07;8.70;;;1.50;99.90;;;;;;5011701;28;20422;-72
2023/02/07 00:48:33;;;;;;;9.17;8.17;;;1.40;99.90;;;;;;5013344;28;20188;-73
2023/02/07 00:50:59;;;;;;;9.73;8.73;;;1.40;99.90;;;;;;5012008;28;20181;-73
2023/02/07 00:53:27;;;;;;;9.83;8.80;;;1.50;99.90;;;;;;5014226;28;20441;-73
2023/02/07 00:55:52;;;;;;;9.83;8.23;;;1.50;99.90;;;;;;5012570;28;20417;-74
2023/02/07 00:58:18;;;;;;;11.33;8.40;;;1.50;99.90;;;;;;5014270;28;20409;-74
2023/02/07 01:00:44;;;;;;;10.73;8.67;;;1.50;99.90;;;;;;5014519;28;20606;-73
2023/02/07 01:03:09;;;;;;;13.60;9.10;;;1.40;99.90;;;;;;5014106;28;20229;-73
2023/02/07 01:05:35;;;;;;;9.47;8.47;;;1.40;99.90;;;;;;5016394;28;20360;-73
2023/02/07 01:08:01;;;;;;;11.87;9.93;;;1.50;99.90;;;;;;5017504;28;20194;-74
2023/02/07 01:10:26;;;;;;;10.27;8.60;;;1.50;99.90;;;;;;5019981;28;20465;-73
2023/02/07 01:12:52;;;;;;;10.43;8.50;;;1.70;99.90;;;;;;5033220;28;20238;-73
2023/02/07 01:15:18;;;;;;;10.20;8.80;;;1.70;99.90;;;;;;5033446;28;20173;-73
2023/02/07 01:17:44;;;;;;;12.03;9.10;;;1.80;99.90;;;;;;5031747;28;20284;-73
2023/02/07 01:20:10;;;;;;;12.40;8.93;;;1.80;99.90;;;;;;5031914;28;20577;-74
2023/02/07 01:22:37;;;;;;;10.90;8.47;;;1.70;99.90;;;;;;5033052;28;20550;-72
2023/02/07 01:25:04;;;;;;;13.33;9.93;;;1.50;99.90;;;;;;5033099;28;20419;-73
2023/02/07 01:27:29;;;;;;;13.13;9.03;;;1.40;99.90;;;;;;5032827;28;20401;-73
2023/02/07 01:29:55;;;;;;;13.20;10.93;;;1.20;99.90;;;;;;5032904;28;20428;-73
2023/02/07 01:32:20;;;;;;;20.87;14.23;;;1.00;99.90;;;;;;5032537;28;20292;-73
2023/02/07 01:34:46;;;;;;;15.17;12.13;;;1.00;99.90;;;;;;5031527;28;20175;-74
2023/02/07 01:37:12;;;;;;;14.30;12.33;;;1.10;99.90;;;;;;5033078;28;20221;-73
2023/02/07 01:39:37;;;;;;;13.87;10.60;;;1.00;99.90;;;;;;5032885;28;20213;-73
2023/02/07 01:42:03;;;;;;;12.33;10.60;;;1.00;99.90;;;;;;5032501;28;20548;-73
2023/02/07 01:44:28;;;;;;;16.83;12.37;;;0.90;99.90;;;;;;5035552;28;20181;-73
2023/02/07 01:46:55;;;;;;;12.00;10.50;;;0.80;99.90;;;;;;5036324;28;20448;-73
2023/02/07 01:49:26;;;;;;;19.23;13.20;;;0.80;99.90;;;;;;5036241;28;20194;-73
2023/02/07 01:52:01;;;;;;;15.13;12.63;;;0.70;99.90;;;;;;5036384;28;20499;-74
2023/02/07 01:54:31;;;;;;;17.17;13.20;;;0.70;99.90;;;;;;5023881;28;20396;-73
2023/02/07 01:57:02;;;;;;;14.57;12.60;;;0.60;99.90;;;;;;5016325;28;20787;-73
2023/02/07 01:59:29;;;;;;;14.57;12.27;;;0.60;99.90;;;;;;5015022;28;20459;-74
2023/02/07 02:01:55;;;;;;;18.43;14.43;;;0.80;99.90;;;;;;5014665;28;20441;-73
2023/02/07 02:04:21;;;;;;;19.07;15.53;;;0.70;99.90;;;;;;5016225;28;20404;-73
2023/02/07 02:06:47;;;;;;;18.50;13.53;;;0.60;99.90;;;;;;5014837;28;20763;-73
2023/02/07 02:09:15;;;;;;;18.17;13.87;;;0.50;99.90;;;;;;5015963;28;20446;-73
2023/02/07 02:12:02;;;;;;;15.20;13.53;;;0.50;99.90;;;;;;5014731;28;20196;-73
2023/02/07 02:15:05;;;;;;;16.73;13.53;;;0.30;99.90;;;;;;5020325;28;20417;-73
2023/02/07 02:17:43;;;;;;;19.93;14.60;;;0.40;99.90;;;;;;5035540;28;20428;-73
2023/02/07 02:20:30;;;;;;;16.77;14.50;;;0.30;99.90;;;;;;5021958;28;20405;-73
2023/02/07 02:23:15;;;;;;;16.70;13.77;;;0.20;99.90;;;;;;4996827;28;20511;-73
2023/02/07 02:25:56;;;;;;;19.87;14.33;;;0.10;99.90;;;;;;4998058;28;20402;-73
2023/02/07 02:28:37;;;;;;;14.70;12.50;;;0.20;99.90;;;;;;4997641;28;20531;-73
2023/02/07 02:31:11;;;;;;;17.57;15.70;;;0.30;99.90;;;;;;4997254;28;20400;-73
2023/02/07 02:34:08;;;;;;;16.50;14.70;;;0.20;99.90;;;;;;4996303;28;20483;-73
2023/02/07 02:36:34;;;;;;;15.20;13.37;;;0.10;99.90;;;;;;4994977;28;20412;-73
2023/02/07 02:39:10;;;;;;;17.57;14.00;;;0.00;99.90;;;;;;4995524;28;20781;-73
2023/02/07 02:41:48;;;;;;;15.90;14.20;;;0.10;99.90;;;;;;4995775;28;20197;-73
2023/02/07 02:44:22;;;;;;;17.10;12.90;;;0.20;99.90;;;;;;4995785;28;20414;-73
2023/02/07 02:46:48;;;;;;;16.33;14.63;;;0.10;99.90;;;;;;4996591;28;20400;-73
2023/02/07 02:49:15;;;;;;;15.87;13.90;;;0.40;99.90;;;;;;4996223;28;20453;-73
2023/02/07 02:51:41;;;;;;;15.23;13.60;;;0.40;99.90;;;;;;5015112;28;20428;-73
2023/02/07 02:54:31;;;;;;;17.83;14.60;;;0.50;99.90;;;;;;5035058;28;20738;-74
2023/02/07 02:57:12;;;;;;;16.87;14.10;;;0.50;99.90;;;;;;5034955;28;20149;-73
2023/02/07 03:00:05;;;;;;;17.60;14.20;;;0.60;99.90;;;;;;5035489;28;20497;-72
2023/02/07 03:02:53;;;;;;;19.20;14.97;;;0.40;99.90;;;;;;5033911;28;20432;-73
2023/02/07 03:05:32;;;;;;;19.57;13.80;;;0.60;99.90;;;;;;5034195;28;20425;-73
2023/02/07 03:08:10;;;;;;;20.47;15.60;;;0.40;99.90;;;;;;5034996;28;20439;-73
2023/02/07 03:11:08;;;;;;;15.87;14.27;;;0.30;99.90;;;;;;5035489;28;20390;-73
2023/02/07 03:14:00;;;;;;;16.23;14.53;;;0.40;99.90;;;;;;5035014;28;20389;-73
2023/02/07 03:16:54;;;;;;;18.73;14.50;;;0.50;99.90;;;;;;5035169;28;20371;-73
2023/02/07 03:19:28;;;;;;;18.90;15.93;;;0.40;99.90;;;;;;5035453;28;20388;-73
2023/02/07 03:21:59;;;;;;;17.23;14.60;;;0.40;99.90;;;;;;5033660;28;20941;-72
2023/02/07 03:24:30;;;;;;;20.63;16.20;;;0.40;99.90;;;;;;5034843;28;20416;-73
2023/02/07 03:26:59;;;;;;;17.13;15.20;;;0.40;99.90;;;;;;5033335;28;20410;-73
2023/02/07 03:29:27;;;;;;;19.90;17.13;;;0.30;99.90;;;;;;5034502;28;20446;-73
2023/02/07 03:31:57;;;;;;;19.97;16.87;;;0.30;99.90;;;;;;5034539;28;20424;-73
2023/02/07 03:34:29;;;;;;;19.90;15.63;;;0.30;99.90;;;;;;5034606;28;20394;-73
2023/02/07 03:37:11;;;;;;;21.70;16.70;;;0.10;99.90;;;;;;5033089;28;20402;-73
2023/02/07 03:39:36;;;;;;;22.93;16.13;;;0.30;99.90;;;;;;5034572;28;20838;-73
2023/02/07 03:42:07;;;;;;;18.07;16.13;;;0.50;99.90;;;;;;5034168;28;20475;-73
2023/02/07 03:44:34;;;;;;;19.43;17.00;;;0.60;99.90;;;;;;5027232;28;20262;-73
2023/02/07 03:47:00;;;;;;;19.27;17.17;;;0.60;99.90;;;;;;5014442;28;20464;-73
2023/02/07 03:49:26;;;;;;;20.53;16.27;;;0.50;99.90;;;;;;5014583;28;20851;-74
2023/02/07 03:51:52;;;;;;;19.53;17.43;;;0.50;99.90;;;;;;5025142;28;20189;-73
2023/02/07 03:54:17;;;;;;;19.00;16.20;;;0.30;99.90;;;;;;5034249;28;20167;-73
2023/02/07 03:56:44;;;;;;;23.23;17.67;;;0.40;99.90;;;;;;5033032;28;20414;-73
2023/02/07 03:59:09;;;;;;;20.37;17.17;;;0.30;99.90;;;;;;5034180;28;20244;-73
2023/02/07 04:01:40;;;;;;;19.53;16.87;;;0.20;99.90;;;;;;5034171;28;20423;-73
2023/02/07 04:04:07;;;;;;;19.03;15.80;;;0.40;99.90;;;;;;5033955;28;20164;-72
2023/02/07 04:06:32;;;;;;;19.70;16.20;;;0.40;99.90;;;;;;5034050;28;20415;-73
2023/02/07 04:08:58;;;;;;;20.07;17.07;;;0.40;99.90;;;;;;5034256;28;20450;-73
2023/02/07 04:11:23;;;;;;;18.10;16.17;;;0.40;99.90;;;;;;5033834;28;20160;-72
2023/02/07 04:13:49;;;;;;;19.50;16.10;;;0.50;99.90;;;;;;5034260;28;20166;-73
2023/02/07 04:16:14;;;;;;;21.60;17.33;;;0.60;99.90;;;;;;5032311;28;20602;-73
2023/02/07 04:18:40;;;;;;;19.87;16.57;;;0.50;99.90;;;;;;5016502;28;20580;-73
2023/02/07 04:21:07;;;;;;;16.53;14.60;;;0.50;99.90;;;;;;5012468;28;20653;-74
2023/02/07 04:23:33;;;;;;;18.33;15.37;;;0.40;99.90;;;;;;5012615;28;20203;-73
2023/02/07 04:25:59;;;;;;;19.37;16.13;;;0.50;99.90;;;;;;5014194;28;20434;-73
2023/02/07 04:28:27;;;;;;;18.60;16.10;;;0.60;99.90;;;;;;5014124;28;20444;-74
2023/02/07 04:30:53;;;;;;;18.03;15.10;;;0.60;99.90;;;;;;5014382;28;20405;-73
2023/02/07 04:33:22;;;;;;;18.80;15.93;;;0.50;99.90;;;;;;5013904;28;20430;-73
2023/02/07 04:35:58;;;;;;;17.77;15.97;;;0.50;99.90;;;;;;5013874;28;20165;-73
2023/02/07 04:38:25;;;;;;;20.40;15.20;;;0.60;99.90;;;;;;5013388;28;20416;-73
2023/02/07 04:40:51;;;;;;;20.13;15.80;;;0.60;99.90;;;;;;5012193;28;20426;-73
2023/02/07 04:43:17;;;;;;;15.83;14.10;;;0.60;99.90;;;;;;5013248;28;20535;-74
2023/02/07 04:45:45;;;;;;;16.90;13.80;;;0.50;99.90;;;;;;5013672;28;20889;-73
2023/02/07 04:48:11;;;;;;;18.70;14.50;;;0.50;99.90;;;;;;5013725;28;20451;-73
2023/02/07 04:50:36;;;;;;;15.70;13.90;;;0.20;99.90;;;;;;5014019;28;20410;-73
2023/02/07 04:53:02;;;;;;;19.00;14.30;;;0.20;99.90;;;;;;5033282;28;20192;-73
2023/02/07 04:55:27;;;;;;;16.23;13.60;;;0.30;99.90;;;;;;5034370;28;20174;-73
2023/02/07 04:57:53;;;;;;;16.80;13.63;;;0.30;99.90;;;;;;5032067;28;20709;-73
2023/02/07 05:00:18;;;;;;;15.83;12.57;;;0.30;99.90;;;;;;5033714;28;20269;-73
2023/02/07 05:02:44;;;;;;;14.73;13.23;;;0.30;99.90;;;;;;5033338;28;20256;-74
2023/02/07 05:05:09;;;;;;;13.33;12.03;;;0.40;99.90;;;;;;5033384;28;20216;-73
2023/02/07 05:07:35;;;;;;;15.13;12.73;;;0.20;99.90;;;;;;5032889;28;20220;-73
2023/02/07 05:10:01;;;;;;;16.43;12.60;;;0.20;99.90;;;;;;5033348;28;20606;-73
2023/02/07 05:12:27;;;;;;;17.27;14.27;;;0.20;99.90;;;;;;5033215;28;20218;-74
2023/02/07 05:14:52;;;;;;;16.13;14.43;;;0.20;99.90;;;;;;5031740;28;20657;-74
2023/02/07 05:17:18;;;;;;;16.27;13.33;;;0.30;99.90;;;;;;5033103;28;20171;-73
2023/02/07 05:19:43;;;;;;;16.30;12.90;;;0.30;99.90;;;;;;5036252;28;20175;-74
2023/02/07 05:22:09;;;;;;;17.20;13.90;;;0.20;99.90;;;;;;5035582;28;20201;-73
2023/02/07 05:24:34;;;;;;;15.80;12.90;;;0.10;99.90;;;;;;5037044;28;20192;-73
2023/02/07 05:27:00;;;;;;;17.80;14.10;;;0.00;99.90;;;;;;5036986;28;20256;-74
2023/02/07 05:29:26;;;;;;;15.13;12.97;;;-0.10;99.90;;;;;;5036932;28;20185;-73
2023/02/07 05:34:36;;;;;;;15.77;13.07;;;-0.10;99.90;;;;;;5036361;28;20159;-73
2023/02/07 05:37:01;;;;;;;13.77;12.20;;;0.00;99.90;;;;;;5020382;28;20413;-73
2023/02/07 05:39:27;;;;;;;17.70;13.50;;;0.10;99.90;;;;;;5016950;28;20504;-73
2023/02/07 05:41:52;;;;;;;15.17;13.20;;;0.10;99.90;;;;;;5016478;28;20252;-72
2023/02/07 05:44:18;;;;;;;17.00;13.70;;;0.20;99.90;;;;;;5017061;28;20161;-72
2023/02/07 05:46:43;;;;;;;14.87;12.07;;;0.20;99.90;;;;;;5017076;28;20642;-73
2023/02/07 05:49:09;;;;;;;16.90;13.00;;;0.10;99.90;;;;;;5016546;28;20198;-73
2023/02/07 05:51:34;;;;;;;15.73;11.40;;;0.00;99.90;;;;;;5022727;28;20201;-73
2023/02/07 05:54:00;;;;;;;13.93;12.40;;;0.00;99.90;;;;;;5036513;28;20164;-73
2023/02/07 05:56:26;;;;;;;17.40;12.17;;;0.20;99.90;;;;;;5036013;28;20199;-74
2023/02/07 05:58:52;;;;;;;14.40;12.37;;;0.30;99.90;;;;;;5035304;28;20280;-73
2023/02/07 06:01:18;;;;;;;15.43;11.97;;;0.30;99.90;;;;;;5034863;28;20229;-73
2023/02/07 06:03:43;;;;;;;14.47;11.00;;;0.20;99.90;;;;;;5036046;28;20879;-73
2023/02/07 06:06:09;;;;;;;15.80;12.50;;;0.20;99.90;;;;;;5036546;28;20177;-73
2023/02/07 06:08:35;;;;;;;15.20;12.90;;;0.00;99.90;;;;;;5035849;28;20200;-73
2023/02/07 06:11:00;;;;;;;14.90;12.40;;;-0.10;99.90;;;;;;5036285;28;20908;-74
2023/02/07 06:13:26;;;;;;;14.70;10.87;;;-0.20;99.90;;;;;;5036205;28;20305;-74
2023/02/07 06:15:51;;;;;;;20.53;12.80;;;-0.30;99.90;;;;;;5020380;28;20175;-73
2023/02/07 06:18:17;;;;;;;11.73;10.53;;;-0.20;99.90;;;;;;5015906;28;20171;-73
2023/02/07 06:20:42;;;;;;;13.90;10.60;;;0.00;99.90;;;;;;5016592;28;20175;-73
2023/02/07 06:23:08;;;;;;;14.40;12.73;;;0.00;99.90;;;;;;5015094;28;20193;-73
2023/02/07 06:25:33;;;;;;;14.57;12.60;;;0.10;99.90;;;;;;5016226;28;20264;-74
2023/02/07 06:27:59;;;;;;;15.83;12.40;;;0.20;99.90;;;;;;5016316;28;20580;-74
2023/02/07 06:30:25;;;;;;;12.70;11.37;;;0.10;99.90;;;;;;5014762;28;20190;-71
2023/02/07 06:32:50;;;;;;;16.60;11.73;;;0.10;99.90;;;;;;5015913;28;20186;-73
2023/02/07 06:35:16;;;;;;;15.43;12.43;;;0.00;99.90;;;;;;5014465;28;20255;-73
2023/02/07 06:37:42;;;;;;;14.87;11.10;;;0.00;99.90;;;;;;5014341;28;20660;-73
2023/02/07 06:40:08;;;;;;;17.03;13.60;;;0.00;99.90;;;;;;5015760;28;20168;-73
2023/02/07 06:42:33;;;;;;;14.10;11.47;;;-0.10;99.90;;;;;;5015298;28;20208;-73
2023/02/07 06:44:59;;;;;;;17.60;15.70;;;-0.20;99.90;;;;;;5015671;28;20456;-73
2023/02/07 06:47:24;;;;;;;18.40;14.37;;;-0.30;99.90;;;;;;5015878;28;20199;-73
2023/02/07 06:49:50;;;;;;;18.47;15.50;;;-0.20;99.90;;;;;;5015556;28;20185;-73
2023/02/07 06:52:15;;;;;;;16.90;13.43;;;-0.20;99.90;;;;;;5014558;28;20757;-75
2023/02/07 06:54:41;;;;;;;16.67;13.57;;;-0.20;99.90;;;;;;5033889;28;20179;-73
2023/02/07 06:57:07;;;;;;;15.33;13.50;;;-0.10;99.90;;;;;;5035321;28;20243;-73
2023/02/07 06:59:32;;;;;;;22.30;17.17;;;-0.10;99.90;;;;;;5035602;28;20203;-73
2023/02/07 07:01:59;;;;;;;17.27;14.77;;;-0.10;99.90;;;;;;5035275;28;20188;-73
2023/02/07 07:04:25;;;;;;;16.50;13.73;;;-0.10;99.90;;;;;;5031990;28;20190;-72
2023/02/07 07:06:51;;;;;;;19.10;14.30;;;-0.10;99.90;;;;;;5034843;28;20403;-74
2023/02/07 07:09:16;;;;;;;17.33;12.53;;;-0.10;99.90;;;;;;5022108;28;20460;-73
2023/02/07 07:11:43;;;;;;;14.90;12.20;;;-0.20;99.90;;;;;;5014957;28;20227;-73
2023/02/07 07:14:09;;;;;;;14.90;12.53;;;-0.30;99.90;;;;;;5014113;28;20517;-73
2023/02/07 07:16:35;;;;;;;16.47;13.00;;;-0.30;99.90;;;;;;5014106;28;20415;-73
2023/02/07 07:19:00;;;;;;;13.70;12.20;;;-0.30;99.90;;;;;;5014279;28;20529;-73
2023/02/07 07:21:27;;;;;;;15.87;13.77;;;-0.30;99.90;;;;;;5014091;28;20574;-73
2023/02/07 07:23:53;;;;;;;13.50;12.03;;;-0.30;99.90;;;;;;5008898;28;20188;-73
2023/02/07 07:26:19;;;;;;;15.00;12.60;;;-0.40;99.90;;;;;;5008932;28;20922;-73
2023/02/07 07:28:45;;;;;;;13.57;12.17;;;-0.40;99.90;;;;;;5009524;28;20450;-73
2023/02/07 07:31:10;;;;;;;15.37;13.10;;;-0.40;99.90;;;;;;5009237;28;20175;-73
2023/02/07 07:33:36;;;;;;;21.63;14.53;;;-0.50;99.90;;;;;;5009750;28;20190;-73
2023/02/07 07:36:02;;;;;;;16.13;13.00;;;-0.40;99.90;;;;;;5009474;28;20204;-73
2023/02/07 07:38:28;;;;;;;15.03;13.00;;;-0.40;99.90;;;;;;5008365;28;20177;-73
2023/02/07 07:40:53;;;;;;;14.30;12.80;;;-0.40;99.90;;;;;;5008079;28;20408;-74
2023/02/07 07:43:19;;;;;;;16.70;13.77;;;-0.50;99.90;;;;;;5007924;28;20865;-73
2023/02/07 07:45:50;;;;;;;16.83;13.47;;;-0.50;99.90;;;;;;5007620;28;20659;-73
2023/02/07 07:48:15;;;;;;;16.13;13.67;;;-0.40;99.90;;;;;;5008314;28;20444;-73
2023/02/07 07:50:41;;;;;;;16.30;12.13;;;-0.40;99.90;;;;;;5008448;28;20415;-73
2023/02/07 07:53:06;;;;;;;14.90;12.23;;;-0.30;99.90;;;;;;5008589;28;20677;-73
2023/02/07 07:55:32;;;;;;;16.53;13.50;;;-0.20;99.90;;;;;;5008847;28;20167;-73
2023/02/07 07:57:57;;;;;;;17.40;12.77;;;-0.20;99.90;;;;;;5007794;28;20250;-72
2023/02/07 08:00:23;;;;;;;15.50;12.43;;;-0.20;99.90;;;;;;5007994;28;20353;-73
2023/02/07 08:02:49;;;;;;;17.37;13.67;;;-0.20;99.90;;;;;;5007126;28;20280;-73
2023/02/07 08:05:14;;;;;;;16.17;14.50;;;-0.10;99.90;;;;;;5007918;28;20183;-73
2023/02/07 08:07:40;;;;;;;18.37;13.13;;;-0.10;99.90;;;;;;5007718;28;20177;-73
2023/02/07 08:10:05;;;;;;;13.97;11.90;;;0.00;99.90;;;;;;5009020;28;20958;-73
2023/02/07 08:12:31;;;;;;;19.50;13.60;;;0.10;99.90;;;;;;5007694;28;20554;-74
2023/02/07 08:14:57;;;;;;;20.73;14.40;;;0.10;99.90;;;;;;5007293;28;20268;-72
2023/02/07 08:17:22;;;;;;;15.50;13.60;;;0.10;99.90;;;;;;5008040;28;20707;-72
2023/02/07 08:19:48;;;;;;;21.30;15.33;;;0.20;99.90;;;;;;5009076;28;20200;-72
2023/02/07 08:22:14;;;;;;;17.77;14.37;;;0.20;99.90;;;;;;5008023;28;20267;-72
2023/02/07 08:24:40;;;;;;;17.70;14.27;;;0.30;99.90;;;;;;5007301;28;20232;-71
2023/02/07 08:27:06;;;;;;;20.80;16.33;;;0.50;99.90;;;;;;5008924;28;20417;-72
2023/02/07 08:29:31;;;;;;;24.17;15.47;;;0.60;99.90;;;;;;5009412;28;20966;-72
2023/02/07 08:31:57;;;;;;;17.30;15.40;;;0.70;99.90;;;;;;5009196;28;20193;-72
2023/02/07 08:34:25;;;;;;;15.87;14.00;;;0.80;99.90;;;;;;5007150;28;20177;-72
2023/02/07 08:36:51;;;;;;;19.47;15.00;;;0.80;99.90;;;;;;5008601;28;20178;-72
2023/02/07 08:39:17;;;;;;;17.80;13.30;;;0.70;99.90;;;;;;5008111;28;20412;-72
2023/02/07 08:41:43;;;;;;;19.70;14.97;;;0.60;99.90;;;;;;5008385;28;20878;-72
2023/02/07 08:44:08;;;;;;;20.20;15.43;;;0.50;99.90;;;;;;5008143;28;20505;-72
2023/02/07 08:46:34;;;;;;;17.63;13.87;;;0.70;99.90;;;;;;5008095;28;21034;-72
2023/02/07 08:48:59;;;;;;;18.10;12.90;;;0.60;99.90;;;;;;5006941;28;20198;-72
2023/02/07 08:51:25;;;;;;;16.40;13.73;;;0.40;99.90;;;;;;5006773;28;20177;-72
2023/02/07 08:53:52;;;;;;;15.83;12.63;;;0.20;99.90;;;;;;5006560;28;20173;-72
2023/02/07 08:56:18;;;;;;;14.47;12.10;;;0.10;99.90;;;;;;5007535;28;20270;-72
2023/02/07 08:58:44;;;;;;;18.03;12.90;;;0.10;99.90;;;;;;5007500;28;20497;-72
2023/02/07 09:01:10;;;;;;;17.97;13.97;;;0.10;99.90;;;;;;5007581;28;20171;-72
2023/02/07 09:03:39;;;;;;;15.90;13.33;;;0.10;99.90;;;;;;5006985;28;20820;-72
2023/02/07 09:06:05;;;;;;;17.10;12.87;;;0.30;99.90;;;;;;5007240;28;20994;-73
2023/02/07 09:08:31;;;;;;;14.83;12.67;;;0.20;99.90;;;;;;5005530;28;20538;-72
2023/02/07 09:10:56;;;;;;;14.40;12.90;;;0.20;99.90;;;;;;5007704;28;20535;-73
2023/02/07 09:13:22;;;;;;;16.73;12.47;;;0.30;99.90;;;;;;5006292;28;20298;-73
2023/02/07 09:15:55;;;;;;;14.50;12.53;;;0.40;99.90;;;;;;5008223;28;20180;-72
2023/02/07 09:18:22;;;;;;;15.60;12.37;;;0.60;99.90;;;;;;5005922;28;20182;-72
2023/02/07 09:20:47;;;;;;;14.10;12.00;;;0.40;99.90;;;;;;5005675;28;20500;-72
2023/02/07 09:23:19;;;;;;;18.43;13.37;;;0.50;99.90;;;;;;5006079;28;20651;-73
2023/02/07 09:25:46;;;;;;;14.63;12.40;;;0.50;99.90;;;;;;5004935;28;20186;-72
2023/02/07 09:28:12;;;;;;;17.57;12.20;;;0.60;99.90;;;;;;5007241;28;20835;-72
2023/02/07 09:30:42;;;;;;;16.93;12.60;;;0.60;99.90;;;;;;5007520;28;20419;-72
2023/02/07 09:33:09;;;;;;;15.97;11.97;;;0.60;99.90;;;;;;5007241;28;20425;-72
2023/02/07 09:35:37;;;;;;;13.53;12.13;;;0.70;99.90;;;;;;5008148;28;20476;-72
2023/02/07 09:38:02;;;;;;;17.40;13.73;;;0.70;99.90;;;;;;5010240;28;20407;-72
2023/02/07 09:40:31;;;;;;;19.10;13.77;;;0.60;99.90;;;;;;5006858;28;20422;-72
2023/02/07 09:43:28;;;;;;;16.43;13.20;;;0.60;99.90;;;;;;5006354;28;20211;-72
2023/02/07 09:45:57;;;;;;;14.90;11.43;;;0.70;99.90;;;;;;5006035;28;20464;-72
2023/02/07 09:48:44;;;;;;;16.07;12.10;;;0.70;99.90;;;;;;5007437;28;20456;-72
2023/02/07 09:51:12;;;;;;;17.60;12.67;;;1.00;99.90;;;;;;5006742;28;20485;-72
2023/02/07 09:53:56;;;;;;;20.60;13.60;;;1.20;99.90;;;;;;5006785;28;20867;-73
2023/02/07 09:56:25;;;;;;;14.67;12.83;;;1.30;99.90;;;;;;5007015;28;20398;-73
2023/02/07 09:59:20;;;;;;;17.47;13.17;;;1.60;99.90;;;;;;5006482;28;20431;-73
2023/02/07 10:01:51;;;;;;;16.03;12.97;;;1.60;99.90;;;;;;5007182;28;20437;-73
2023/02/07 10:04:23;;;;;;;14.47;11.97;;;1.60;99.90;;;;;;5007559;28;20902;-73
2023/02/07 10:06:52;;;;;;;15.03;13.03;;;1.30;99.90;;;;;;5011102;28;20982;-73
2023/02/07 10:09:29;;;;;;;16.40;12.87;;;1.60;99.90;;;;;;5007967;28;20458;-73
2023/02/07 10:12:29;;;;;;;13.43;11.87;;;1.70;99.90;;;;;;5009320;28;20436;-73
2023/02/07 10:14:54;;;;;;;15.20;13.27;;;1.80;99.90;;;;;;5009742;28;20403;-73
2023/02/07 10:17:41;;;;;;;14.53;13.00;;;1.70;99.90;;;;;;5008839;28;20496;-73
2023/02/07 10:20:25;;;;;;;15.67;12.30;;;1.70;99.90;;;;;;5009463;28;20175;-71
2023/02/07 10:23:29;;;;;;;14.00;12.43;;;1.50;99.90;;;;;;5008894;28;20818;-71
2023/02/07 10:26:31;;;;;;;17.60;13.03;;;1.60;99.90;;;;;;5009964;28;20456;-72
2023/02/07 10:29:24;;;;;;;19.50;13.43;;;2.00;99.90;;;;;;5003239;28;20455;-73
2023/02/07 10:31:53;;;;;;;14.73;12.37;;;2.00;99.90;;;;;;5008599;28;20446;-74
2023/02/07 10:34:34;;;;;;;13.50;11.53;;;2.10;99.90;;;;;;5010830;28;20909;-73
2023/02/07 10:37:10;;;;;;;14.03;12.00;;;2.30;99.90;;;;;;5010315;28;20428;-71
2023/02/07 10:39:41;;;;;;;14.40;12.60;;;2.30;99.90;;;;;;5008462;28;20850;-72
2023/02/07 10:42:13;;;;;;;12.97;11.60;;;2.50;99.90;;;;;;5008464;28;20469;-72
2023/02/07 10:44:39;;;;;;;15.70;12.60;;;2.70;99.90;;;;;;5010350;28;20482;-71
2023/02/07 10:47:08;;;;;;;14.80;12.70;;;2.80;99.90;;;;;;5007905;28;20553;-72
2023/02/07 10:49:36;;;;;;;19.13;14.83;;;2.60;99.90;;;;;;5010383;28;20847;-71
2023/02/07 10:52:24;;;;;;;13.77;12.47;;;2.80;99.90;;;;;;5009750;28;20480;-71
2023/02/07 10:54:59;;;;;;;15.47;12.80;;;3.00;99.90;;;;;;5009484;28;20415;-72
2023/02/07 10:57:26;;;;;;;14.10;12.60;;;3.00;99.90;;;;;;5009073;28;20685;-72
2023/02/07 11:00:11;;;;;;;20.17;14.07;;;2.90;99.90;;;;;;5009194;28;21057;-71
2023/02/07 11:02:50;;;;;;;15.47;13.87;;;2.80;99.90;;;;;;5008776;28;20427;-72
2023/02/07 11:05:16;;;;;;;14.80;12.70;;;3.00;99.90;;;;;;5009905;28;20483;-72
2023/02/07 11:08:02;;;;;;;14.90;12.87;;;3.20;99.90;;;;;;5009536;28;20513;-71
2023/02/07 11:10:34;;;;;;;13.87;12.37;;;3.30;99.90;;;;;;5008788;28;20651;-72
2023/02/07 11:13:00;;;;;;;14.27;12.13;;;3.40;99.90;;;;;;5009392;28;20422;-72
2023/02/07 11:15:36;;;;;;;15.33;11.57;;;3.50;99.90;;;;;;5008089;28;20907;-72
2023/02/07 11:18:02;;;;;;;13.10;11.80;;;4.30;99.90;;;;;;5009919;28;20407;-72
2023/02/07 11:20:38;;;;;;;12.00;10.80;;;5.60;99.90;;;;;;5009087;28;20427;-73
2023/02/07 11:23:13;;;;;;;14.60;13.10;;;6.80;97.70;;;;;;5008630;28;21102;-72
2023/02/07 11:25:42;;;;;;;13.70;11.47;;;6.50;97.10;;;;;;5008233;28;20517;-72
2023/02/07 11:28:21;;;;;;;23.47;13.50;;;8.80;95.30;;;;;;5009637;28;20567;-73
2023/02/07 11:30:54;;;;;;;16.80;12.10;;;10.50;90.90;;;;;;5008796;28;20384;-73
2023/02/07 11:33:24;;;;;;;13.43;11.03;;;10.90;85.90;;;;;;5006896;28;20429;-73
2023/02/07 11:36:22;;;;;;;17.67;11.63;;;11.70;82.00;;;;;;5008861;28;20474;-73
2023/02/07 11:38:53;;;;;;;12.30;11.03;;;10.30;80.40;;;;;;5008642;28;20501;-73
2023/02/07 11:41:30;;;;;;;13.53;11.43;;;9.00;84.40;;;;;;5008630;28;20424;-73
2023/02/07 11:44:02;;;;;;;13.63;12.23;;;9.40;85.80;;;;;;5008561;28;20478;-72
2023/02/07 11:46:40;;;;;;;12.43;11.23;;;10.90;82.10;;;;;;5008320;28;20402;-72
2023/02/07 11:49:18;;;;;;;12.40;11.10;;;9.90;80.00;;;;;;5010013;28;20535;-72
2023/02/07 11:51:44;;;;;;;13.43;11.90;;;9.10;84.50;;;;;;5038749;22;20485;-73
2023/02/07 11:54:12;;;;;;;16.80;12.97;;;10.50;82.20;;;;;;5012493;28;20791;-73
2023/02/07 11:56:41;;;;;;;14.97;13.40;;;11.60;79.10;;;;;;5012055;28;20172;-72
2023/02/07 11:59:14;;;;;;;16.27;12.63;;;10.80;75.10;;;;;;4998378;28;20408;-74
2023/02/07 12:01:43;;;;;;;14.97;13.37;;;10.30;76.80;;;;;;4994915;28;20423;-74
2023/02/07 12:04:14;;;;;;;13.50;12.10;;;10.90;78.10;;;;;;4995058;28;20952;-73
2023/02/07 12:06:43;;;;;;;13.90;12.40;;;12.60;74.20;;;;;;4994333;28;20493;-74
2023/02/07 12:09:19;;;;;;;12.40;11.20;;;12.10;71.60;;;;;;4994394;28;20458;-74
2023/02/07 12:11:45;;;;;;;13.50;10.40;;;11.30;73.00;;;;;;4994519;28;20992;-74
2023/02/07 12:14:18;;;;;;;18.33;13.87;;;11.70;72.80;;;;;;4994609;28;20412;-74
2023/02/07 12:16:50;;;;;;;13.27;11.77;;;10.20;75.00;;;;;;4994500;28;20404;-73
2023/02/07 12:19:42;;;;;;;13.43;12.10;;;9.60;77.00;;;;;;5009474;28;20559;-74
2023/02/07 12:22:21;;;;;;;14.40;12.60;;;10.30;75.40;;;;;;4993901;28;21041;-73
2023/02/07 12:25:00;;;;;;;12.97;11.60;;;12.10;75.10;;;;;;5003542;28;20422;-74
2023/02/07 12:27:34;;;;;;;13.63;11.63;;;11.20;72.10;;;;;;4994703;28;20434;-74
2023/02/07 12:30:07;;;;;;;12.53;11.33;;;10.30;74.20;;;;;;4994998;28;20438;-74
2023/02/07 12:33:15;;;;;;;13.03;11.93;;;10.60;72.90;;;;;;4994930;28;20503;-74
2023/02/07 12:36:02;;;;;;;11.73;10.57;;;10.50;73.10;;;;;;4990822;28;20416;-73
2023/02/07 12:38:41;;;;;;;11.40;10.27;;;12.80;71.10;;;;;;5004264;28;20432;-74
2023/02/07 12:41:23;;;;;;;11.10;10.00;;;13.60;64.90;;;;;;5007327;28;20825;-73
2023/02/07 12:44:08;;;;;;;10.57;9.67;;;13.30;61.90;;;;;;5008845;28;20406;-73
2023/02/07 12:46:43;;;;;;;22.43;15.30;;;12.90;59.70;;;;;;5007621;28;20397;-73
2023/02/07 12:49:31;;;;;;;12.40;9.57;;;12.60;63.00;;;;;;5007723;28;20448;-73
2023/02/07 12:52:09;;;;;;;10.63;9.60;;;12.50;61.40;;;;;;5007965;28;20855;-75
2023/02/07 12:54:55;;;;;;;10.07;9.17;;;12.60;61.10;;;;;;5022702;28;20836;-75